Weather observations for the past three days for
San Bernardino Intl. Airport
Imperial (Metric)
Date Time (pdt) Wind (mph) Vis. (mi.) Weather Sky Cond. Temperature (ºF) Relative Humidity Wind Chill (°F) Heat Index (°F) Pressure Precipitation (in)
Air Dwpt 6 hour altimeter (in) sea level (mb) 1 hr 3 hr 6 hr
Max. Min.
30 22:40 W 5 10.00 Fair CLR 76.8 57.7 52% 79 29.92 0.0
30 22:20 W 5 10.00 Fair CLR 77 57.4 51% 79 29.92 0.0
30 22:00 SW 6 10.00 Fair CLR 78.1 57.2 49% 79 29.91 0.0
30 21:41 SW 8 10.00 Fair CLR 78.8 56.7 47% 80 29.91 0.0
30 19:55 SW 10 10.00 Fair CLR 82.4 55.4 40% 82 29.86 0.0
30 18:55 W 8 10.00 Fair CLR 86 53.6 33% 84 29.85 0.0
30 17:55 W 15 10.00 Fair CLR 91.4 50 24% 88 29.84 0.0
30 16:55 SW 14 10.00 Fair CLR 93.2 51.8 24% 90 29.84 0.0
30 15:55 W 15 G 21 10.00 Fair CLR 96.8 48.2 19% 93 29.84 0.0
30 14:55 W 14 10.00 Fair CLR 98.6 48.2 18% 95 29.84 0.0
30 13:55 W 12 G 18 10.00 Fair CLR 98.6 46.4 17% 95 29.87 0.0
30 12:55 W 7 10.00 Fair CLR 95 50 22% 92 29.89 0.0
30 11:55 W 5 10.00 Fair CLR 93.2 50 23% 90 29.9 0.0
30 10:55 W 3 10.00 Fair CLR 91.4 48.2 23% 88 29.91 0.0
30 09:55 Calm 10.00 Fair CLR 86 50 29% 84 29.91 0.0
30 08:55 Calm 7.00 Fair CLR 82.4 55.4 40% 82 29.92 0.0
30 07:55 Calm 7.00 Fair CLR 77 57.2 51% 79 29.93 0.0
30 06:55 Calm 7.00 Fair CLR 73.4 55.4 53% 29.93 0.0
30 05:40 Calm 10.00 Fair CLR 73.4 57.7 58% 29.91 0.0
30 05:20 Calm 10.00 Fair CLR 73.9 59.7 61% 29.9 0.0
30 05:00 Calm 10.00 Fair CLR 73.8 59.9 62% 29.9 0.0
30 04:40 W 3 10.00 Fair CLR 73.4 59.5 62% 29.9 0.0
30 04:20 W 5 10.00 Fair CLR 73.6 59.9 62% 29.9 0.0
30 04:00 W 6 10.00 Fair CLR 74.3 59.9 61% 29.89 0.0
30 03:40 W 5 10.00 Fair CLR 75.9 58.5 55% 78 29.89 0.0
30 03:20 Calm 10.00 Fair CLR 77.2 54.7 46% 79 29.89 0.0
30 03:00 Calm 10.00 Fair CLR 77.7 53.8 44% 79 29.89 0.0
30 02:40 Calm 10.00 Fair CLR 77.9 59.9 54% 79 29.89 0.0
30 02:20 Calm 10.00 Fair CLR 77.4 59.5 54% 79 29.88 0.0
30 02:00 W 5 10.00 Fair CLR 77.4 59.2 54% 79 29.89 0.0
30 01:40 SW 3 10.00 Fair CLR 78.6 59.5 52% 80 29.88 0.0
30 01:20 SW 3 10.00 Fair CLR 78.8 59.4 51% 80 29.89 0.0
30 01:00 W 5 10.00 Fair CLR 79.2 59 50% 80 29.89 0.0
30 00:40 W 6 10.00 Fair CLR 78.8 58.3 49% 80 29.89 0.0
30 00:20 W 6 10.00 Fair CLR 79.3 57.4 47% 80 29.89 0.0
30 00:00 W 5 10.00 Fair CLR 81 56.5 43% 81 29.89 0.0
29 23:40 W 5 10.00 Fair CLR 81.5 55.4 41% 81 29.89 0.0
29 23:20 Calm 10.00 Fair CLR 82.9 56.1 40% 82 29.88 0.0
29 23:00 SW 3 10.00 Fair CLR 82.2 55.9 41% 82 29.88 0.0
29 22:40 W 5 10.00 Fair CLR 83.1 56.3 40% 82 29.88 0.0
29 22:20 W 3 10.00 Fair CLR 83.3 56.3 40% 83 29.89 0.0
29 22:00 W 7 10.00 Fair CLR 84.2 55.4 37% 83 29.88 0.0
29 21:40 SW 5 10.00 Fair CLR 85.3 55.6 36% 84 29.88 0.0
29 20:55 SW 8 10.00 Fair CLR 86 50 29% 84 29.87 0.0
29 19:55 W 9 10.00 Fair CLR 89.6 50 26% 87 29.85 0.0
29 18:55 SW 9 10.00 Fair CLR 93.2 50 23% 90 29.84 0.0
29 17:51 W 16 10.00 Fair CLR 96.8 48.2 19% 93 29.83 0.0
29 16:55 W 17 G 21 10.00 Fair CLR 98.6 46.4 17% 95 29.83 0.0
29 15:55 SW 17 G 21 10.00 Fair CLR 102.2 48.2 16% 99 29.83 0.0
29 14:53 W 12 G 21 10.00 Fair CLR 102.2 48.2 16% 99 29.85 0.0
29 13:55 W 6 G 16 10.00 Fair CLR 100.4 46.4 16% 97 29.87 0.0
29 12:50 S 6 10.00 Fair CLR 100.4 46.4 16% 97 29.89 0.0
29 11:55 Calm 10.00 Fair CLR 95 50 22% 92 29.92 0.0
29 10:55 Calm 10.00 Fair CLR 95 51.8 23% 92 29.94 0.0
29 09:55 Calm 10.00 Fair CLR 89.6 53.6 29% 87 29.95 0.0
29 08:55 Calm 7.00 Fair CLR 84.2 55.4 37% 83 29.94 0.0
29 07:55 Calm 7.00 Fair CLR 80.6 57.2 45% 81 29.93 0.0
29 06:55 Calm 7.00 Fair CLR 77 57.2 51% 79 29.93 0.0
29 05:40 SW 3 10.00 Fair CLR 77.9 56.3 47% 79 29.92 0.0
29 05:20 SW 3 10.00 Fair CLR 78.4 56.3 47% 79 29.92 0.0
29 05:00 Calm 10.00 Fair CLR 79.3 55.4 44% 80 29.91 0.0
29 04:40 Calm 10.00 Fair CLR 79.3 55.6 44% 80 29.91 0.0
29 04:20 Calm 10.00 Fair CLR 79.2 55.4 44% 80 29.9 0.0
29 04:00 Calm 10.00 Fair CLR 79.7 55.6 44% 80 29.9 0.0
29 03:40 Calm 10.00 Fair CLR 79.7 56.3 45% 80 29.9 0.0
29 03:20 Calm 10.00 Fair CLR 80.6 55.6 42% 81 29.89 0.0
29 03:00 SE 3 10.00 Fair CLR 81 55 41% 81 29.89 0.0
29 02:40 Calm 10.00 Fair CLR 81.7 55.4 41% 81 29.89 0.0
29 02:20 Calm 10.00 Fair CLR 82.4 55.8 40% 82 29.9 0.0
29 02:00 Calm 10.00 Fair CLR 81.7 55.9 41% 81 29.9 0.0
29 01:40 Calm 10.00 Fair CLR 82.4 55.6 40% 82 29.9 0.0
29 01:20 Calm 10.00 Fair CLR 82.6 55.4 39% 82 29.9 0.0
29 01:02 SW 3 10.00 Fair CLR 83.3 55 38% 82 29.9 0.0
29 00:42 Calm 10.00 Fair CLR 83.8 54.3 36% 83 29.91 0.0
29 00:20 S 3 10.00 Fair CLR 84.2 54.5 36% 83 29.9 0.0
29 00:00 Calm 10.00 Fair CLR 85.1 55.4 36% 84 29.9 0.0
28 23:40 Calm 10.00 Fair CLR 85.6 55 35% 84 29.9 0.0
28 23:20 Calm 10.00 Fair CLR 85.3 55 36% 84 29.9 0.0
28 23:00 SW 3 10.00 Fair CLR 86 55.4 35% 85 29.9 0.0
28 22:40 Calm 10.00 Fair CLR 86.5 55.4 35% 85 29.89 0.0
28 22:20 W 3 10.00 Fair CLR 86 55.4 35% 85 29.9 0.0
28 22:00 SW 5 10.00 Fair CLR 86.9 55.4 34% 85 29.89 0.0
28 21:40 W 7 10.00 Fair CLR 87.4 55 33% 86 29.89 0.0
28 18:55 SW 8 10.00 Fair CLR 95 57.2 28% 94 29.86 0.0
28 17:50 W 13 10.00 Fair CLR 100.4 55.4 22% 99 29.84 0.0
28 16:50 W 16 G 22 10.00 Fair CLR 104 48.2 15% 101 29.83 0.0
28 15:55 W 14 G 20 10.00 Fair CLR 104 50 16% 101 29.83 0.0
28 14:55 SW 13 10.00 Fair CLR 105.8 50 15% 103 29.85 0.0
28 13:55 NW 9 10.00 Fair CLR 104 48.2 15% 101 29.88 0.0
28 12:53 W 7 10.00 Fair CLR 102.2 50 17% 99 29.9 0.0
28 11:55 W 5 10.00 Fair CLR 100.4 51.8 20% 98 29.92 0.0
28 10:55 Calm 10.00 Fair CLR 95 55.4 26% 93 29.93 0.0
28 09:55 Calm 10.00 Fair CLR 91.4 55.4 30% 90 29.94 0.0
28 08:55 Calm 7.00 Fair CLR 86 59 40% 85 29.93 0.0
28 07:55 Calm 7.00 Fair CLR 84.2 57.2 40% 83 29.93 0.0
28 06:55 Calm 7.00 Fair CLR 80.6 55.4 42% 81 29.91 0.0
28 05:41 Calm 10.00 Fair CLR 79.7 56.8 46% 80 29.89 0.0
28 05:20 Calm 10.00 Fair CLR 79.7 57.4 47% 80 29.89 0.0
28 05:00 Calm 10.00 Fair CLR 79.3 57.2 47% 80 29.89 0.0
28 04:40 Calm 10.00 Fair CLR 80.2 57.9 47% 81 29.89 0.0
28 04:20 Calm 10.00 Fair CLR 80.2 56.5 44% 80 29.89 0.0
28 04:00 Calm 10.00 Fair CLR 80.6 57 45% 81 29.88 0.0
28 03:40 Calm 10.00 Fair CLR 80.8 58.5 47% 81 29.88 0.0
28 03:20 Calm 10.00 Fair CLR 80.6 57.4 45% 81 29.88 0.0
28 03:00 Calm 10.00 Fair CLR 81.5 58.5 46% 82 29.88 0.0
28 02:40 Calm 10.00 Fair CLR 82.2 58.5 44% 82 29.88 0.0
28 02:20 S 3 10.00 Fair CLR 82.4 59.4 46% 83 29.88 0.0
28 02:00 Calm 10.00 Fair CLR 82.9 60.8 47% 83 29.88 0.0
28 01:20 Calm 10.00 Fair CLR 83.3 61.2 47% 84 29.88 0.0
28 01:00 Calm 10.00 Fair CLR 82.9 60.4 47% 83 29.88 0.0
28 00:40 W 3 10.00 Fair CLR 83.8 59.5 44% 84 29.88 0.0
28 00:20 Calm 10.00 Fair CLR 83.8 56.8 40% 83 29.88 0.0
28 00:00 Calm 10.00 Fair CLR 84.6 56.7 39% 84 29.87 0.0
27 23:40 Calm 10.00 Fair CLR 86 57 37% 85 29.87 0.0
27 23:20 Calm 10.00 Fair CLR 85.8 58.1 39% 85 29.87 0.0
27 23:00 Calm 10.00 Fair CLR 86.2 58.8 40% 86 29.87 0.0
Date Time (pdt) Wind (mph) Vis. (mi.) Weather Sky Cond. Air Dwpt Max. Min. Relative Humidity Wind Chill (°F) Heat Index (°F) altimeter (in) sea level (mb) 1 hr 3 hr 6 hr
6 hour
Temperature (ºF) Pressure Precipitation (in)